KSIK/SIK METAR and TAF weather

Enter ICAO airport designator
Station Type Date Time Source
KSIK METAR 2019/04/17 16:15 UTC NOAA

KSIK 171615Z AUTO 18009G20KT 10SM CLR 22/13 A2994 RMK AO2


Station Type Date Time Source
KSIK Decoded METAR 2019/04/17 16:15 UTC NOAA

Station name not available
Apr 17, 2019 - 12:15 PM EDT / 2019.04.17 1615 UTC
Wind: from the S (180 degrees) at 10 MPH (9 KT) gusting to 23 MPH (20 KT):0
Visibility: 10 mile(s):0
Sky conditions: clear
Temperature: 71 F (22 C)
Dew Point: 55 F (13 C)
Relative Humidity: 56%
Pressure (altimeter): 29.94 in. Hg (1013 hPa)
ob: KSIK 171615Z AUTO 18009G20KT 10SM CLR 22/13 A2994 RMK AO2
cycle: 16

Station Type Date Time Source
KSIK TAF UTC NOAA

Error!

Example: see airport list